createdAt,value
2023-09-27T00:00:42.843Z,30.40
2023-09-27T00:06:05.761Z,25.90
2023-09-27T00:11:09.041Z,31.00
2023-09-27T00:16:12.517Z,30.20
2023-09-27T00:21:15.657Z,34.40
2023-09-27T00:26:18.624Z,38.10
2023-09-27T00:31:21.797Z,30.10
2023-09-27T00:36:24.983Z,35.80
2023-09-27T00:41:27.972Z,35.40
2023-09-27T00:46:31.022Z,44.90
2023-09-27T00:51:34.779Z,41.30
2023-09-27T00:56:38.667Z,41.10
2023-09-27T01:01:42.827Z,49.00
2023-09-27T01:06:45.895Z,41.20
2023-09-27T01:11:49.422Z,42.80
2023-09-27T01:16:52.422Z,51.00
2023-09-27T01:21:55.422Z,48.00
2023-09-27T01:27:00.852Z,59.40
2023-09-27T01:32:04.162Z,43.50
2023-09-27T01:37:09.258Z,44.90
2023-09-27T01:42:12.468Z,49.40
2023-09-27T01:47:15.583Z,49.80
2023-09-27T01:52:18.900Z,54.30
2023-09-27T01:57:22.015Z,50.30
2023-09-27T02:02:25.150Z,59.00
2023-09-27T02:07:28.319Z,59.40
2023-09-27T02:12:31.326Z,61.00
2023-09-27T02:17:34.759Z,54.10
2023-09-27T02:22:39.051Z,72.30
2023-09-27T02:27:43.210Z,81.50
2023-09-27T02:32:47.300Z,85.60
2023-09-27T02:37:50.659Z,89.80
2023-09-27T02:42:53.873Z,74.80
2023-09-27T02:47:56.952Z,71.20
2023-09-27T02:53:00.140Z,62.90
2023-09-27T02:58:03.347Z,58.80
2023-09-27T03:03:08.850Z,59.10
2023-09-27T03:08:12.129Z,58.50
2023-09-27T03:13:16.013Z,63.70
2023-09-27T03:18:19.115Z,78.40
2023-09-27T03:23:22.508Z,59.40
2023-09-27T03:28:25.645Z,65.10
2023-09-27T03:33:28.900Z,72.90
2023-09-27T03:38:33.555Z,70.10
2023-09-27T03:43:36.810Z,78.60
2023-09-27T03:48:39.944Z,75.00
2023-09-27T03:53:42.929Z,72.60
2023-09-27T03:58:46.036Z,74.60
2023-09-27T04:03:49.329Z,70.30
2023-09-27T04:08:53.059Z,83.70
2023-09-27T04:13:56.413Z,68.50
2023-09-27T04:19:00.317Z,85.30
2023-09-27T04:24:05.504Z,79.10
2023-09-27T04:29:09.043Z,100.30
2023-09-27T04:34:12.731Z,86.60
2023-09-27T04:39:18.389Z,87.00
2023-09-27T04:44:21.633Z,86.30
2023-09-27T04:49:24.812Z,100.70
2023-09-27T04:54:27.949Z,104.10
2023-09-27T04:59:31.162Z,130.80
2023-09-27T05:04:34.201Z,104.60
2023-09-27T05:09:37.255Z,131.60
2023-09-27T05:14:41.029Z,128.90
2023-09-27T05:19:44.487Z,122.00
2023-09-27T05:24:48.390Z,98.60
2023-09-27T05:29:51.638Z,76.20
2023-09-27T05:34:54.839Z,57.90
2023-09-27T05:39:58.152Z,55.40
2023-09-27T05:45:01.170Z,46.80
2023-09-27T05:50:05.718Z,44.40
2023-09-27T05:55:09.284Z,40.30
2023-09-27T06:00:24.980Z,38.00
2023-09-27T06:05:28.286Z,32.70
2023-09-27T06:10:31.554Z,36.70
2023-09-27T06:15:35.505Z,35.20
2023-09-27T06:20:40.476Z,31.90
2023-09-27T06:25:45.179Z,29.20
2023-09-27T06:30:48.393Z,31.30
2023-09-27T06:35:51.400Z,28.00
2023-09-27T06:40:56.149Z,24.00
2023-09-27T06:46:02.734Z,30.10
2023-09-27T06:51:07.135Z,26.80
2023-09-27T06:56:10.654Z,24.30
2023-09-27T07:01:14.886Z,22.40
2023-09-27T07:06:18.796Z,22.90
2023-09-27T07:11:22.661Z,33.30
2023-09-27T07:16:30.982Z,25.00
2023-09-27T07:21:34.243Z,23.10
2023-09-27T07:26:38.063Z,26.70
2023-09-27T07:31:41.271Z,25.80
2023-09-27T07:36:45.511Z,20.90
2023-09-27T07:41:49.024Z,19.90
2023-09-27T07:46:52.786Z,18.60
2023-09-27T07:51:57.085Z,25.90
2023-09-27T07:57:01.326Z,19.90
2023-09-27T08:02:04.457Z,19.00
2023-09-27T08:07:07.639Z,22.90
2023-09-27T08:12:10.856Z,18.20
2023-09-27T08:17:14.141Z,25.00
2023-09-27T08:22:17.378Z,21.60
2023-09-27T08:27:20.586Z,25.70
2023-09-27T08:32:23.731Z,24.80
2023-09-27T08:37:26.906Z,27.40
2023-09-27T08:42:32.987Z,23.60
2023-09-27T08:47:36.454Z,27.70
2023-09-27T08:52:39.721Z,24.60
2023-09-27T08:57:47.126Z,29.20
2023-09-27T09:02:53.924Z,25.20
2023-09-27T09:07:58.789Z,26.60
2023-09-27T09:13:02.229Z,24.00
2023-09-27T09:18:07.973Z,24.40
2023-09-27T09:23:14.157Z,21.70
2023-09-27T09:28:17.355Z,25.50
2023-09-27T09:33:21.460Z,22.30
2023-09-27T09:38:35.615Z,23.50
2023-09-27T09:43:40.441Z,27.30
2023-09-27T09:48:45.757Z,19.90
2023-09-27T09:53:49.297Z,23.70
2023-09-27T09:58:58.952Z,20.60
2023-09-27T10:04:05.985Z,23.40
2023-09-27T10:09:16.539Z,21.80
2023-09-27T10:14:20.594Z,18.50
2023-09-27T10:19:29.777Z,20.90
2023-09-27T10:29:59.712Z,22.10
2023-09-27T10:35:18.199Z,15.20
2023-09-27T10:40:22.720Z,14.80
2023-09-27T10:45:26.324Z,17.60
2023-09-27T10:50:31.490Z,14.10
2023-09-27T10:55:39.998Z,13.90
2023-09-27T11:00:56.699Z,14.70
2023-09-27T11:06:13.629Z,12.10
2023-09-27T11:11:17.518Z,11.60
2023-09-27T11:16:20.816Z,12.60
2023-09-27T11:21:28.229Z,11.70
2023-09-27T11:26:32.968Z,14.70
2023-09-27T11:31:37.701Z,14.20
2023-09-27T11:36:52.715Z,13.60
2023-09-27T11:42:00.621Z,13.60
2023-09-27T11:47:13.397Z,11.00
2023-09-27T11:52:16.485Z,18.00
2023-09-27T11:57:19.587Z,14.80
2023-09-27T12:02:28.120Z,17.50
2023-09-27T12:07:34.859Z,13.20
2023-09-27T12:12:38.653Z,12.30
2023-09-27T12:17:41.925Z,15.00
2023-09-27T12:22:45.471Z,11.40
2023-09-27T12:27:48.488Z,16.60
2023-09-27T12:32:52.752Z,13.60
2023-09-27T12:37:56.035Z,10.10
2023-09-27T12:42:59.242Z,14.80
2023-09-27T12:48:02.868Z,12.40
2023-09-27T12:53:06.085Z,15.60
2023-09-27T12:58:09.477Z,16.70
2023-09-27T13:03:13.040Z,13.20
2023-09-27T13:08:16.767Z,16.30
2023-09-27T13:13:20.086Z,11.90
2023-09-27T13:18:23.182Z,9.90
2023-09-27T13:23:26.405Z,13.70
2023-09-27T13:28:29.708Z,10.00
2023-09-27T13:33:33.127Z,15.20
2023-09-27T13:38:38.876Z,17.70
2023-09-27T13:43:42.086Z,18.50
2023-09-27T13:48:45.286Z,14.00
2023-09-27T13:53:48.639Z,12.10
2023-09-27T13:58:52.387Z,12.60
2023-09-27T14:03:55.844Z,14.70
2023-09-27T14:08:59.327Z,14.90
2023-09-27T14:14:04.313Z,15.70
2023-09-27T14:19:07.471Z,12.00
2023-09-27T14:24:11.157Z,19.70
2023-09-27T14:29:22.358Z,14.50
2023-09-27T14:39:43.373Z,17.10
2023-09-27T14:44:46.933Z,19.60
2023-09-27T14:49:50.218Z,11.60
2023-09-27T14:54:53.532Z,11.00
2023-09-27T14:59:57.548Z,15.10
2023-09-27T15:05:00.856Z,10.90
2023-09-27T15:10:04.421Z,12.10
2023-09-27T15:15:08.417Z,17.20
2023-09-27T15:20:14.015Z,12.10
2023-09-27T15:25:17.757Z,14.80
2023-09-27T15:30:21.183Z,17.10
2023-09-27T15:35:26.835Z,16.20
2023-09-27T15:40:32.388Z,13.80
2023-09-27T15:45:35.508Z,17.50
2023-09-27T15:50:38.606Z,16.70
2023-09-27T15:55:41.688Z,14.30
2023-09-27T16:00:45.141Z,14.50
2023-09-27T16:05:51.641Z,14.50
2023-09-27T16:10:56.123Z,14.20
2023-09-27T16:15:59.975Z,13.10
2023-09-27T16:27:38.687Z,19.50
2023-09-27T16:33:01.725Z,14.80
2023-09-27T16:38:05.553Z,19.50
2023-09-27T16:43:09.462Z,17.50
2023-09-27T16:48:12.938Z,24.80
2023-09-27T16:53:16.460Z,17.40
2023-09-27T16:58:19.890Z,21.50
2023-09-27T17:03:23.528Z,19.80
2023-09-27T17:08:27.233Z,21.70
2023-09-27T17:13:30.665Z,30.30
2023-09-27T17:18:34.211Z,19.40
2023-09-27T17:23:38.352Z,20.70
2023-09-27T17:28:42.081Z,20.50
2023-09-27T17:33:49.837Z,23.40
2023-09-27T17:38:54.023Z,22.40
2023-09-27T17:43:58.605Z,22.70
2023-09-27T17:49:02.766Z,25.70
2023-09-27T17:54:08.722Z,19.20
2023-09-27T17:59:12.303Z,23.10
2023-09-27T18:04:16.226Z,25.60
2023-09-27T18:09:19.582Z,20.10
2023-09-27T18:14:24.037Z,23.20
2023-09-27T18:19:27.828Z,21.90
2023-09-27T18:24:31.054Z,23.30
2023-09-27T18:29:34.519Z,23.10
2023-09-27T18:34:39.316Z,23.90
2023-09-27T18:39:52.000Z,27.30
2023-09-27T18:44:55.777Z,22.10
2023-09-27T18:50:00.496Z,27.00
2023-09-27T18:55:05.414Z,18.60
2023-09-27T19:00:09.316Z,28.90
2023-09-27T19:05:12.953Z,28.50
2023-09-27T19:10:16.481Z,26.80
2023-09-27T19:15:19.751Z,31.90
2023-09-27T19:20:23.109Z,28.40
2023-09-27T19:25:26.427Z,28.60
2023-09-27T19:30:29.702Z,24.80
2023-09-27T19:35:32.825Z,25.80
2023-09-27T19:40:36.065Z,19.50
2023-09-27T19:45:39.311Z,23.40
2023-09-27T19:50:42.440Z,25.00
2023-09-27T19:55:45.846Z,25.00
2023-09-27T20:00:49.071Z,22.20
2023-09-27T20:05:52.200Z,22.80
2023-09-27T20:10:55.382Z,32.90
2023-09-27T20:15:59.370Z,30.20
2023-09-27T20:21:05.373Z,33.20
2023-09-27T20:26:13.815Z,27.00
2023-09-27T20:31:32.205Z,22.40
2023-09-27T20:36:40.015Z,35.00
2023-09-27T20:41:43.500Z,23.30
2023-09-27T20:46:47.175Z,30.80
2023-09-27T20:51:54.839Z,33.00
2023-09-27T20:57:04.404Z,29.50
2023-09-27T21:02:11.553Z,28.20
2023-09-27T21:07:14.955Z,28.60
2023-09-27T21:12:18.063Z,26.00
2023-09-27T21:17:21.388Z,25.60
2023-09-27T21:22:24.481Z,24.60
2023-09-27T21:27:27.897Z,23.80
2023-09-27T21:32:31.107Z,29.70
2023-09-27T21:37:34.229Z,26.80
2023-09-27T21:42:37.734Z,27.80
2023-09-27T21:47:40.798Z,28.90
2023-09-27T21:52:44.283Z,30.80
2023-09-27T21:57:47.377Z,27.00
2023-09-27T22:02:50.515Z,26.00
2023-09-27T22:07:53.925Z,27.70
2023-09-27T22:12:57.116Z,33.30
2023-09-27T22:18:02.414Z,26.50
2023-09-27T22:23:06.691Z,27.70
2023-09-27T22:28:17.602Z,27.50
2023-09-27T22:33:20.709Z,28.80
2023-09-27T22:38:25.145Z,29.30
2023-09-27T22:43:28.290Z,30.00
2023-09-27T22:48:31.467Z,26.50
2023-09-27T22:53:36.912Z,29.80
2023-09-27T22:58:40.340Z,34.20
2023-09-27T23:03:45.947Z,32.80
2023-09-27T23:08:53.129Z,31.90
2023-09-27T23:13:59.128Z,30.40
2023-09-27T23:19:02.378Z,30.50
2023-09-27T23:24:31.901Z,35.40
2023-09-27T23:29:35.894Z,29.90
2023-09-27T23:34:38.998Z,34.80
2023-09-27T23:39:48.579Z,28.10
2023-09-27T23:45:03.223Z,32.60
2023-09-27T23:50:12.128Z,33.50
2023-09-27T23:55:18.747Z,27.80
